Time;durP1;ratioP1;P1;durP2;ratioP2;P2;SDS_P1;SDS_P2;PMS_P1;PMS_P2;Temp;Humidity;BMP_temperature;BMP_pressure;BME280_temperature;BME280_humidity;BME280_pressure;Samples;Min_cycle;Max_cycle;Signal;HPM_P1;HPM_P2
2023/10/02 00:01:53;;;;;;;5.72;1.88;;;13.20;99.90;;;;;;5054718;28;20084;-76
2023/10/02 00:04:24;;;;;;;6.93;1.58;;;13.20;99.90;;;;;;5038546;28;20518;-76
2023/10/02 00:07:08;;;;;;;7.40;1.67;;;13.20;99.90;;;;;;5059997;28;20491;-76
2023/10/02 00:09:37;;;;;;;6.95;1.90;;;13.20;99.90;;;;;;5022969;28;20056;-76
2023/10/02 00:12:12;;;;;;;5.57;1.80;;;13.20;99.90;;;;;;5023947;28;20447;-76
2023/10/02 00:14:42;;;;;;;8.80;1.98;;;13.20;99.90;;;;;;5045630;28;20041;-76
2023/10/02 00:17:18;;;;;;;5.63;1.58;;;13.20;99.90;;;;;;5047596;28;20080;-77
2023/10/02 00:19:49;;;;;;;4.80;2.00;;;13.10;99.90;;;;;;5029038;28;20547;-77
2023/10/02 00:25:09;;;;;;;5.25;1.75;;;13.10;99.90;;;;;;5046522;28;20052;-77
2023/10/02 00:27:37;;;;;;;3.28;1.48;;;13.10;99.90;;;;;;5022296;28;20047;-77
2023/10/02 00:30:13;;;;;;;4.38;1.90;;;13.10;99.90;;;;;;5038532;28;20056;-77
2023/10/02 00:32:43;;;;;;;5.43;1.80;;;13.10;99.90;;;;;;5046364;28;20470;-77
2023/10/02 00:35:12;;;;;;;6.68;2.13;;;13.00;99.90;;;;;;5044898;28;20072;-77
2023/10/02 00:37:43;;;;;;;5.40;2.20;;;13.00;99.90;;;;;;5045988;28;20052;-77
2023/10/02 00:40:25;;;;;;;5.30;2.13;;;13.10;99.90;;;;;;5033661;28;20091;-77
2023/10/02 00:43:33;;;;;;;5.00;1.52;;;13.10;99.90;;;;;;5045607;28;20067;-77
2023/10/02 00:45:49;;;;;;;5.68;1.58;;;13.10;99.90;;;;;;5034366;28;20048;-77
2023/10/02 00:48:28;;;;;;;5.25;1.63;;;13.10;99.90;;;;;;5029043;28;20052;-77
2023/10/02 00:51:05;;;;;;;7.65;2.03;;;13.10;99.90;;;;;;5042951;28;20033;-77
2023/10/02 00:53:38;;;;;;;11.32;1.60;;;13.10;99.90;;;;;;5032844;28;20051;-77
2023/10/02 00:56:19;;;;;;;4.82;1.85;;;13.10;99.90;;;;;;5032563;28;20056;-77
2023/10/02 00:58:58;;;;;;;6.22;1.77;;;13.10;99.90;;;;;;5035700;28;20103;-76
2023/10/02 01:01:31;;;;;;;4.40;1.92;;;13.10;99.90;;;;;;5038813;28;20126;-76
2023/10/02 01:04:09;;;;;;;5.10;1.60;;;13.10;99.90;;;;;;5039715;28;20041;-76
2023/10/02 01:06:55;;;;;;;7.30;2.05;;;13.00;99.90;;;;;;5045414;28;20098;-76
2023/10/02 01:09:25;;;;;;;7.22;1.55;;;13.10;99.90;;;;;;5041442;28;20091;-76
2023/10/02 01:11:58;;;;;;;4.28;1.45;;;13.00;99.90;;;;;;5020832;28;20051;-76
2023/10/02 01:17:17;;;;;;;3.83;1.30;;;12.90;99.90;;;;;;5060860;28;20904;-77
2023/10/02 01:19:53;;;;;;;5.68;1.90;;;12.90;99.90;;;;;;5027578;28;20041;-77
2023/10/02 01:22:42;;;;;;;3.33;1.20;;;12.90;99.90;;;;;;5039067;28;22535;-77
2023/10/02 01:25:13;;;;;;;8.18;1.65;;;12.90;99.90;;;;;;5047081;28;20044;-77
2023/10/02 01:27:47;;;;;;;4.28;1.80;;;13.00;99.90;;;;;;5048395;28;20131;-77
2023/10/02 01:30:16;;;;;;;4.75;1.75;;;13.00;99.90;;;;;;5044698;28;20079;-77
2023/10/02 01:33:12;;;;;;;7.95;1.65;;;13.00;99.90;;;;;;5041851;28;22446;-77
2023/10/02 01:35:46;;;;;;;6.55;1.67;;;13.00;99.90;;;;;;5042919;28;20045;-77
2023/10/02 01:38:33;;;;;;;5.60;1.83;;;12.90;99.90;;;;;;5046649;28;20587;-77
2023/10/02 01:41:08;;;;;;;7.00;1.90;;;13.00;99.90;;;;;;5028332;28;20057;-77
2023/10/02 01:43:39;;;;;;;4.22;1.63;;;13.00;99.90;;;;;;5060543;28;21056;-77
2023/10/02 01:46:07;;;;;;;9.13;1.80;;;12.90;99.90;;;;;;5036730;28;20504;-77
2023/10/02 01:48:36;;;;;;;6.63;1.63;;;12.90;99.90;;;;;;5042715;28;20078;-77
2023/10/02 01:51:16;;;;;;;4.30;1.42;;;12.90;99.90;;;;;;5044768;28;20041;-77
2023/10/02 01:53:45;;;;;;;5.38;1.50;;;12.90;99.90;;;;;;5048338;28;20053;-77
2023/10/02 01:56:13;;;;;;;5.68;2.20;;;12.80;99.90;;;;;;5018056;28;20157;-77
2023/10/02 01:58:44;;;;;;;5.47;1.65;;;12.80;99.90;;;;;;5049428;28;20052;-77
2023/10/02 02:01:11;;;;;;;6.82;1.60;;;12.80;99.90;;;;;;5042999;28;20152;-77
2023/10/02 02:03:40;;;;;;;6.22;2.05;;;12.70;99.90;;;;;;5025025;28;20843;-77
2023/10/02 02:06:09;;;;;;;8.00;1.60;;;12.70;99.90;;;;;;5019977;28;20483;-76
2023/10/02 02:08:43;;;;;;;5.55;1.55;;;12.70;99.90;;;;;;5050149;28;20139;-77
2023/10/02 02:11:18;;;;;;;4.82;1.50;;;12.70;99.90;;;;;;5043554;28;20045;-77
2023/10/02 02:13:47;;;;;;;5.35;1.50;;;12.70;99.90;;;;;;5038881;28;20065;-77
2023/10/02 02:16:17;;;;;;;5.25;1.88;;;12.80;99.90;;;;;;5027386;28;20129;-77
2023/10/02 02:18:50;;;;;;;14.63;3.13;;;12.70;99.90;;;;;;5044106;28;20037;-76
2023/10/02 02:21:19;;;;;;;6.95;1.85;;;12.70;99.90;;;;;;5044413;28;20052;-76
2023/10/02 02:23:46;;;;;;;6.30;1.45;;;12.70;99.90;;;;;;5043139;28;20041;-76
2023/10/02 02:26:27;;;;;;;5.75;1.70;;;12.70;99.90;;;;;;5019657;28;20049;-76
2023/10/02 02:28:55;;;;;;;4.78;1.50;;;12.70;99.90;;;;;;5048407;28;20053;-77
2023/10/02 02:31:39;;;;;;;3.88;1.58;;;12.60;99.90;;;;;;5025882;28;20446;-77
2023/10/02 02:34:16;;;;;;;6.63;1.60;;;12.50;99.90;;;;;;5028442;28;20790;-77
2023/10/02 02:36:49;;;;;;;5.60;1.50;;;12.50;99.90;;;;;;5041360;28;20053;-77
2023/10/02 02:39:20;;;;;;;6.53;1.60;;;12.50;99.90;;;;;;5033531;28;20067;-76
2023/10/02 02:41:48;;;;;;;8.68;2.22;;;12.50;99.90;;;;;;5040265;28;20056;-76
2023/10/02 02:47:09;;;;;;;4.07;1.90;;;12.50;99.90;;;;;;5042733;28;22777;-76
2023/10/02 02:49:48;;;;;;;8.68;1.80;;;12.40;99.90;;;;;;5021539;28;20056;-77
2023/10/02 02:52:19;;;;;;;8.75;1.92;;;12.40;99.90;;;;;;5033132;28;20088;-77
2023/10/02 02:54:48;;;;;;;7.25;1.58;;;12.40;99.90;;;;;;5050985;28;20136;-77
2023/10/02 02:57:18;;;;;;;5.82;1.90;;;12.40;99.90;;;;;;5043872;28;20049;-77
2023/10/02 02:59:46;;;;;;;5.55;1.65;;;12.30;99.90;;;;;;5042311;28;20087;-77
2023/10/02 03:02:21;;;;;;;6.38;2.00;;;12.30;99.90;;;;;;5039027;28;20099;-77
2023/10/02 03:04:56;;;;;;;9.70;1.95;;;12.30;99.90;;;;;;5042268;28;20047;-77
2023/10/02 03:07:29;;;;;;;9.40;2.53;;;12.30;99.90;;;;;;5044210;28;20067;-77
2023/10/02 03:09:58;;;;;;;8.35;2.65;;;12.30;99.90;;;;;;5023794;28;20052;-77
2023/10/02 03:12:27;;;;;;;6.88;1.90;;;12.30;99.90;;;;;;5044298;28;20045;-77
2023/10/02 03:14:56;;;;;;;6.07;1.77;;;12.30;99.90;;;;;;5042428;28;20588;-77
2023/10/02 03:17:30;;;;;;;5.53;1.88;;;12.30;99.90;;;;;;5025141;28;20145;-77
2023/10/02 03:20:00;;;;;;;4.35;2.00;;;12.30;99.90;;;;;;5017344;28;20041;-77
2023/10/02 03:22:28;;;;;;;5.88;2.05;;;12.20;99.90;;;;;;5043990;28;20057;-77
2023/10/02 03:25:25;;;;;;;7.60;1.60;;;12.20;99.90;;;;;;5043315;28;20044;-77
2023/10/02 03:27:48;;;;;;;5.95;2.20;;;12.20;99.90;;;;;;5043602;28;20144;-77
2023/10/02 03:30:35;;;;;;;4.97;1.50;;;12.20;99.90;;;;;;5030473;28;20138;-77
2023/10/02 03:33:03;;;;;;;4.57;1.88;;;12.10;99.90;;;;;;5018485;28;20102;-77
2023/10/02 03:35:39;;;;;;;9.82;2.00;;;12.20;99.90;;;;;;5024868;28;20610;-77
2023/10/02 03:38:06;;;;;;;4.78;1.95;;;12.10;99.90;;;;;;5060841;28;21421;-77
2023/10/02 03:40:34;;;;;;;6.15;1.85;;;12.10;99.90;;;;;;5035456;28;20056;-77
2023/10/02 03:43:18;;;;;;;4.22;1.83;;;12.10;99.90;;;;;;5022518;28;20064;-77
2023/10/02 03:45:50;;;;;;;5.32;1.90;;;12.10;99.90;;;;;;5043806;28;20118;-77
2023/10/02 03:48:18;;;;;;;8.55;2.13;;;12.10;99.90;;;;;;5048708;28;20099;-77
2023/10/02 03:50:45;;;;;;;7.28;2.00;;;12.00;99.90;;;;;;5034714;28;20069;-77
2023/10/02 03:53:12;;;;;;;4.70;1.92;;;12.00;99.90;;;;;;5044636;28;20056;-77
2023/10/02 03:55:40;;;;;;;8.10;2.15;;;12.00;99.90;;;;;;5028862;28;20405;-77
2023/10/02 03:58:09;;;;;;;9.40;2.50;;;12.00;99.90;;;;;;5042804;28;20111;-77
2023/10/02 04:00:43;;;;;;;4.93;2.40;;;12.00;99.90;;;;;;5051305;28;20052;-77
2023/10/02 04:03:11;;;;;;;5.57;2.25;;;12.00;99.90;;;;;;5061888;28;20037;-77
2023/10/02 04:05:45;;;;;;;5.70;2.17;;;12.00;99.90;;;;;;5046259;28;20052;-77
2023/10/02 04:10:55;;;;;;;6.32;2.88;;;12.00;99.90;;;;;;5040847;28;20053;-77
2023/10/02 04:13:27;;;;;;;6.68;2.60;;;11.90;99.90;;;;;;5031792;28;20155;-77
2023/10/02 04:16:28;;;;;;;8.23;2.75;;;12.00;99.90;;;;;;5033253;28;20049;-77
2023/10/02 04:18:49;;;;;;;7.20;2.17;;;12.00;99.90;;;;;;5052756;28;20045;-77
2023/10/02 04:21:22;;;;;;;8.00;3.20;;;12.00;99.90;;;;;;5029756;28;20048;-77
2023/10/02 04:23:53;;;;;;;10.55;2.85;;;12.00;99.90;;;;;;5041849;28;20450;-77
2023/10/02 04:26:22;;;;;;;8.52;2.83;;;12.00;99.90;;;;;;5040739;28;20053;-77
2023/10/02 04:28:55;;;;;;;5.72;2.05;;;12.00;99.90;;;;;;5044076;28;20131;-77
2023/10/02 04:31:27;;;;;;;7.03;2.30;;;12.00;99.90;;;;;;5043122;28;20094;-77
2023/10/02 04:36:43;;;;;;;8.77;2.85;;;12.00;99.90;;;;;;5043882;28;20041;-77
2023/10/02 04:39:52;;;;;;;6.45;2.38;;;12.00;99.90;;;;;;5027729;28;20056;-77
2023/10/02 04:42:15;;;;;;;7.63;2.03;;;12.00;99.90;;;;;;5041855;28;20110;-77
2023/10/02 04:44:46;;;;;;;;;;;12.00;99.90;;;;;;5048403;28;20064;-77
2023/10/02 04:47:21;;;;;;;7.47;2.15;;;12.00;99.90;;;;;;5045839;28;20728;-77
2023/10/02 04:52:55;;;;;;;4.15;2.00;;;12.10;99.90;;;;;;5045462;28;20043;-77
2023/10/02 04:55:25;;;;;;;10.10;3.00;;;12.10;99.90;;;;;;5032860;28;22558;-77
2023/10/02 04:58:04;;;;;;;7.60;3.13;;;12.10;99.90;;;;;;5050002;28;21553;-77
2023/10/02 05:00:33;;;;;;;6.50;2.53;;;12.20;99.90;;;;;;5025840;28;20068;-77
2023/10/02 05:03:18;;;;;;;7.95;2.88;;;12.20;99.90;;;;;;5041768;28;20052;-78
2023/10/02 05:05:49;;;;;;;8.30;2.65;;;12.30;99.90;;;;;;5040029;28;20045;-78
2023/10/02 05:08:29;;;;;;;9.60;3.17;;;12.30;99.90;;;;;;5027732;28;20061;-78
2023/10/02 05:11:06;;;;;;;8.30;2.95;;;12.40;99.90;;;;;;5025372;28;20063;-78
2023/10/02 05:16:29;;;;;;;7.38;2.90;;;12.40;99.90;;;;;;5042906;28;20045;-78
2023/10/02 05:18:57;;;;;;;7.63;2.85;;;12.40;99.90;;;;;;5018346;28;20408;-78
2023/10/02 05:21:38;;;;;;;11.02;3.50;;;12.40;99.90;;;;;;5039728;28;20052;-78
2023/10/02 05:24:15;;;;;;;7.13;2.97;;;12.50;99.90;;;;;;5042502;28;20080;-78
2023/10/02 05:26:44;;;;;;;9.45;2.78;;;12.50;99.90;;;;;;5043773;28;20336;-78
2023/10/02 05:29:36;;;;;;;9.25;3.00;;;12.60;99.90;;;;;;5045964;28;20052;-78
2023/10/02 05:32:19;;;;;;;17.95;6.68;;;12.70;99.90;;;;;;5023342;28;20045;-78
2023/10/02 05:35:03;;;;;;;21.13;8.57;;;12.70;99.90;;;;;;5014324;28;20060;-78
2023/10/02 05:37:32;;;;;;;24.85;8.18;;;12.70;99.90;;;;;;5037514;28;20049;-78
2023/10/02 05:40:37;;;;;;;17.20;6.95;;;12.70;99.90;;;;;;5021035;28;20187;-78
2023/10/02 05:45:39;;;;;;;14.05;6.30;;;12.80;99.90;;;;;;5042603;28;20480;-78
2023/10/02 05:48:15;;;;;;;15.77;5.85;;;12.80;99.90;;;;;;5018067;28;20187;-77
2023/10/02 05:50:48;;;;;;;14.27;5.47;;;12.80;99.90;;;;;;5042056;28;20128;-77
2023/10/02 05:53:17;;;;;;;17.55;6.30;;;12.80;99.90;;;;;;5014779;28;20055;-77
2023/10/02 05:58:32;;;;;;;11.18;5.55;;;12.90;99.90;;;;;;5041495;28;20064;-77
2023/10/02 06:01:18;;;;;;;13.35;5.18;;;12.90;99.90;;;;;;5039258;28;20438;-77
2023/10/02 06:03:56;;;;;;;9.57;4.93;;;13.00;99.90;;;;;;5023806;28;20072;-77
2023/10/02 06:06:27;;;;;;;12.07;3.63;;;13.00;99.90;;;;;;5038480;28;20511;-78
2023/10/02 06:09:00;;;;;;;9.10;3.63;;;13.10;99.90;;;;;;5023559;28;22404;-78
2023/10/02 06:11:33;;;;;;;10.95;3.70;;;13.10;99.90;;;;;;5039360;28;20036;-78
2023/10/02 06:14:09;;;;;;;13.45;3.80;;;13.20;99.90;;;;;;5022554;28;20906;-78
2023/10/02 06:16:39;;;;;;;11.88;4.13;;;13.20;99.90;;;;;;5015747;28;20063;-78
2023/10/02 06:19:13;;;;;;;12.10;4.28;;;13.30;99.90;;;;;;5039453;28;20102;-78
2023/10/02 06:24:27;;;;;;;11.55;2.95;;;13.20;99.90;;;;;;5038251;28;20095;-78
2023/10/02 06:26:57;;;;;;;8.55;3.03;;;13.30;99.90;;;;;;5031155;28;20045;-79
2023/10/02 06:29:28;;;;;;;6.80;2.72;;;13.40;99.90;;;;;;5034449;28;22544;-79
2023/10/02 06:32:02;;;;;;;8.30;2.55;;;13.50;99.90;;;;;;5040739;28;20049;-78
2023/10/02 06:34:36;;;;;;;6.55;2.78;;;13.50;99.90;;;;;;5020380;28;20416;-79
2023/10/02 06:37:11;;;;;;;7.80;2.33;;;13.60;99.90;;;;;;5046061;28;20068;-80
2023/10/02 06:42:48;;;;;;;8.38;2.63;;;13.70;99.90;;;;;;5040283;28;20055;-80
2023/10/02 06:45:25;;;;;;;6.55;2.70;;;13.70;99.90;;;;;;5039693;28;20049;-78
2023/10/02 06:47:52;;;;;;;11.30;3.65;;;13.70;99.90;;;;;;5038166;28;20037;-79
2023/10/02 06:50:30;;;;;;;5.75;2.33;;;13.80;99.90;;;;;;5039661;28;20091;-78
2023/10/02 06:52:59;;;;;;;7.72;2.15;;;13.90;99.90;;;;;;5029877;28;20855;-79
2023/10/02 06:55:29;;;;;;;7.13;2.50;;;14.10;99.90;;;;;;5035121;28;20083;-80
2023/10/02 06:57:57;;;;;;;7.90;2.75;;;14.20;99.90;;;;;;5036167;28;20060;-79
2023/10/02 07:00:36;;;;;;;6.65;3.03;;;14.30;99.90;;;;;;5039344;28;20138;-80
2023/10/02 07:03:04;;;;;;;7.20;2.35;;;14.30;99.90;;;;;;5037178;28;20064;-79
2023/10/02 07:05:34;;;;;;;8.07;2.67;;;14.40;99.90;;;;;;5039800;28;20045;-79
2023/10/02 07:08:28;;;;;;;6.20;2.53;;;14.50;99.90;;;;;;5060700;28;22401;-79
2023/10/02 07:10:58;;;;;;;8.00;3.10;;;14.60;99.90;;;;;;5039154;28;20060;-78
2023/10/02 07:13:25;;;;;;;7.07;2.58;;;14.80;99.90;;;;;;5046407;28;20045;-79
2023/10/02 07:15:57;;;;;;;5.80;2.40;;;14.90;99.90;;;;;;5041457;28;20045;-80
2023/10/02 07:18:35;;;;;;;8.52;2.45;;;15.00;99.90;;;;;;5041715;28;20045;-79
2023/10/02 07:21:07;;;;;;;6.68;2.30;;;15.20;99.90;;;;;;5045294;28;20063;-79
2023/10/02 07:23:37;;;;;;;7.22;2.30;;;15.20;99.90;;;;;;5051256;28;20036;-79
2023/10/02 07:26:13;;;;;;;6.88;2.58;;;15.30;99.90;;;;;;5040105;28;20041;-79
2023/10/02 07:28:52;;;;;;;7.88;2.65;;;15.50;99.90;;;;;;5043216;28;20044;-79
2023/10/02 07:31:21;;;;;;;5.38;2.40;;;15.50;99.90;;;;;;5042811;28;20110;-78
2023/10/02 07:33:48;;;;;;;5.63;2.10;;;15.60;99.90;;;;;;5037669;28;20107;-79
2023/10/02 07:36:16;;;;;;;5.20;2.10;;;15.70;99.90;;;;;;5042394;28;20159;-79
2023/10/02 07:38:46;;;;;;;5.90;2.10;;;15.80;99.70;;;;;;5043133;28;20072;-78
2023/10/02 07:41:24;;;;;;;4.90;1.67;;;15.90;99.40;;;;;;5036000;28;20136;-79
2023/10/02 07:44:07;;;;;;;4.53;1.75;;;16.10;99.80;;;;;;5024743;28;20053;-79
2023/10/02 07:46:36;;;;;;;5.28;1.67;;;16.20;99.00;;;;;;5044338;28;20051;-79
2023/10/02 07:49:05;;;;;;;5.53;1.58;;;16.40;98.30;;;;;;5061596;28;20041;-80
2023/10/02 07:51:36;;;;;;;8.13;1.38;;;16.50;97.70;;;;;;5044876;28;20053;-79
2023/10/02 07:54:06;;;;;;;4.80;1.25;;;16.60;97.70;;;;;;5034557;28;20061;-80
2023/10/02 07:56:35;;;;;;;2.97;1.17;;;16.60;97.40;;;;;;5024208;28;20057;-79
2023/10/02 07:59:03;;;;;;;5.35;1.20;;;16.60;96.80;;;;;;5043473;28;20032;-79
2023/10/02 08:01:34;;;;;;;4.95;1.95;;;16.70;97.00;;;;;;5030212;28;20053;-79
2023/10/02 08:04:02;;;;;;;6.13;2.20;;;16.80;96.80;;;;;;5029320;28;20135;-80
2023/10/02 08:06:44;;;;;;;7.25;1.80;;;16.90;97.40;;;;;;5037973;28;20114;-79
2023/10/02 08:09:36;;;;;;;4.43;1.05;;;17.00;96.70;;;;;;5037171;28;20057;-79
2023/10/02 08:12:04;;;;;;;8.45;1.50;;;17.10;96.70;;;;;;5042773;28;20076;-78
2023/10/02 08:14:46;;;;;;;6.07;1.80;;;17.00;95.00;;;;;;5041185;28;20190;-78
2023/10/02 08:20:15;;;;;;;4.03;1.75;;;17.20;94.50;;;;;;5046985;28;20053;-78
2023/10/02 08:22:48;;;;;;;2.60;1.20;;;17.20;94.70;;;;;;5044526;28;20478;-78
2023/10/02 08:25:16;;;;;;;5.50;1.60;;;17.20;94.30;;;;;;5039155;28;20049;-78
2023/10/02 08:27:44;;;;;;;6.30;1.70;;;17.40;94.70;;;;;;5018553;28;20420;-79
2023/10/02 08:33:18;;;;;;;4.25;0.90;;;17.50;94.60;;;;;;4983948;28;20591;-79
2023/10/02 08:36:09;;;;;;;5.15;1.58;;;17.70;95.00;;;;;;5042969;28;20143;-78
2023/10/02 08:38:40;;;;;;;4.43;1.10;;;17.50;93.50;;;;;;5048968;28;20037;-78
2023/10/02 08:41:08;;;;;;;4.63;1.25;;;17.60;94.30;;;;;;5047447;28;20045;-78
2023/10/02 08:43:44;;;;;;;3.22;1.13;;;17.80;93.90;;;;;;5019698;28;20041;-78
2023/10/02 08:46:23;;;;;;;3.70;1.20;;;17.80;93.10;;;;;;5041285;28;20132;-78
2023/10/02 08:48:54;;;;;;;4.82;2.30;;;17.80;92.60;;;;;;5044785;28;20117;-78
2023/10/02 08:51:32;;;;;;;4.35;1.50;;;17.90;93.00;;;;;;5028591;28;20446;-80
2023/10/02 08:54:05;;;;;;;4.07;0.93;;;18.00;92.90;;;;;;5035026;28;20122;-79
2023/10/02 08:56:49;;;;;;;5.07;1.27;;;18.10;93.20;;;;;;5051301;28;20083;-77
2023/10/02 08:59:26;;;;;;;4.72;1.67;;;18.20;91.90;;;;;;5042152;28;20114;-78
2023/10/02 09:02:16;;;;;;;6.00;1.10;;;18.10;91.40;;;;;;5039559;28;20067;-79
2023/10/02 09:04:53;;;;;;;4.05;1.05;;;18.30;92.30;;;;;;5039481;28;20166;-78
2023/10/02 09:10:28;;;;;;;4.15;1.35;;;18.60;91.50;;;;;;5046507;28;20064;-79
2023/10/02 09:13:24;;;;;;;7.45;1.27;;;18.60;91.60;;;;;;5032182;28;20508;-78
2023/10/02 09:15:53;;;;;;;4.72;1.38;;;18.70;90.60;;;;;;5040193;28;20047;-77
2023/10/02 09:18:58;;;;;;;5.20;1.60;;;18.60;90.10;;;;;;5040799;28;20059;-77
2023/10/02 09:21:23;;;;;;;6.32;1.67;;;18.50;91.40;;;;;;5041769;28;20054;-77
2023/10/02 09:23:51;;;;;;;3.72;1.73;;;18.60;91.00;;;;;;5041029;28;20075;-77
2023/10/02 09:26:26;;;;;;;6.45;1.60;;;18.60;90.60;;;;;;5036319;28;20044;-77
2023/10/02 09:29:04;;;;;;;7.68;1.08;;;18.60;90.10;;;;;;5040335;28;20516;-78
2023/10/02 09:31:34;;;;;;;6.88;1.38;;;18.70;91.00;;;;;;5039727;28;22465;-77
2023/10/02 09:34:16;;;;;;;5.53;1.85;;;19.00;90.70;;;;;;5059333;28;20150;-77
2023/10/02 09:37:11;;;;;;;6.35;1.63;;;19.00;89.20;;;;;;5023384;28;20044;-77
2023/10/02 09:40:00;;;;;;;7.43;1.30;;;18.90;88.60;;;;;;5052093;28;20780;-77
2023/10/02 09:42:33;;;;;;;8.27;1.80;;;19.00;89.10;;;;;;5042333;28;22512;-77
2023/10/02 09:45:08;;;;;;;;;;;19.00;87.30;;;;;;5035631;28;20059;-79
2023/10/02 09:47:37;;;;;;;3.63;1.02;;;19.00;87.80;;;;;;5038519;28;19928;-78
2023/10/02 09:50:26;;;;;;;4.50;1.45;;;19.20;87.40;;;;;;5038859;28;20122;-77
2023/10/02 09:53:08;;;;;;;4.28;1.42;;;19.40;88.10;;;;;;5041378;28;20104;-77
2023/10/02 09:55:42;;;;;;;6.30;0.90;;;19.50;86.90;;;;;;5026375;28;20136;-78
2023/10/02 09:58:26;;;;;;;5.10;1.55;;;19.50;85.10;;;;;;5035557;28;20068;-78
2023/10/02 10:03:56;;;;;;;3.85;0.82;;;19.30;83.50;;;;;;5035965;28;20071;-77
2023/10/02 10:06:36;;;;;;;3.17;1.05;;;19.20;83.70;;;;;;5043439;28;20219;-77
2023/10/02 10:11:44;;;;;;;4.68;1.23;;;19.40;86.80;;;;;;5037512;28;20049;-78
2023/10/02 10:14:44;;;;;;;2.90;0.95;;;19.50;85.90;;;;;;5031238;28;20479;-77
2023/10/02 10:17:18;;;;;;;4.88;1.27;;;19.60;84.60;;;;;;5040954;28;22532;-77
2023/10/02 10:20:08;;;;;;;5.88;1.42;;;19.60;85.10;;;;;;5036767;28;20052;-77
2023/10/02 10:22:40;;;;;;;8.00;1.25;;;19.60;85.80;;;;;;5029025;28;20059;-77
2023/10/02 10:28:06;;;;;;;3.80;1.00;;;19.60;84.80;;;;;;5040765;28;20051;-76
2023/10/02 10:30:38;;;;;;;2.38;0.77;;;19.80;85.30;;;;;;5037407;28;20048;-78
2023/10/02 10:35:49;;;;;;;6.60;1.70;;;20.00;82.90;;;;;;5039300;28;20045;-78
2023/10/02 10:38:25;;;;;;;5.82;1.02;;;20.20;82.30;;;;;;5035368;28;20044;-77
2023/10/02 10:41:06;;;;;;;4.93;1.15;;;20.20;82.20;;;;;;5036246;28;20060;-77
2023/10/02 10:43:55;;;;;;;4.60;1.55;;;20.20;81.50;;;;;;5038221;28;20041;-77
2023/10/02 10:46:24;;;;;;;5.72;1.40;;;20.30;80.80;;;;;;5036723;28;20854;-78
2023/10/02 10:49:08;;;;;;;4.07;1.40;;;20.10;79.70;;;;;;5041292;28;20042;-78
2023/10/02 10:51:37;;;;;;;6.13;1.38;;;20.20;80.80;;;;;;5040358;28;20130;-77
2023/10/02 10:54:30;;;;;;;4.55;1.15;;;20.20;78.70;;;;;;5039218;28;20052;-77
2023/10/02 10:57:27;;;;;;;4.57;1.40;;;20.30;79.30;;;;;;5014303;28;20534;-77
2023/10/02 11:00:23;;;;;;;7.40;2.50;;;20.20;81.10;;;;;;5039681;28;20061;-77
2023/10/02 11:03:07;;;;;;;4.45;1.10;;;20.30;80.70;;;;;;5041418;28;20041;-77
2023/10/02 11:05:37;;;;;;;3.75;0.80;;;20.30;78.90;;;;;;5039669;28;20053;-80
2023/10/02 11:08:23;;;;;;;3.35;0.90;;;20.40;78.40;;;;;;5039304;28;20044;-79
2023/10/02 11:11:21;;;;;;;4.53;0.93;;;20.30;76.30;;;;;;5029287;28;20052;-78
2023/10/02 11:13:54;;;;;;;4.80;1.10;;;20.30;77.20;;;;;;5027852;28;20053;-79
2023/10/02 11:16:36;;;;;;;3.03;1.10;;;20.40;77.00;;;;;;5056110;28;20816;-80
2023/10/02 11:19:21;;;;;;;4.13;0.95;;;20.50;77.40;;;;;;5036334;28;20041;-79
2023/10/02 11:22:17;;;;;;;5.35;1.00;;;20.50;77.80;;;;;;5054485;28;20140;-78
2023/10/02 11:24:54;;;;;;;5.88;1.27;;;20.40;75.90;;;;;;5036253;28;20041;-78
2023/10/02 11:27:24;;;;;;;4.88;0.85;;;20.30;77.30;;;;;;5015640;28;20045;-78
2023/10/02 11:30:02;;;;;;;9.80;1.67;;;20.40;78.60;;;;;;5044601;28;20041;-78
2023/10/02 11:33:11;;;;;;;5.03;1.20;;;20.50;77.40;;;;;;5015531;28;20045;-78
2023/10/02 11:35:38;;;;;;;4.05;1.48;;;20.70;78.50;;;;;;5037982;28;20053;-78
2023/10/02 11:38:07;;;;;;;7.32;1.30;;;20.70;78.40;;;;;;5038213;28;20045;-79
2023/10/02 11:40:35;;;;;;;4.50;1.05;;;20.70;78.90;;;;;;5029303;28;22494;-78
2023/10/02 11:43:03;;;;;;;4.22;1.13;;;20.60;77.50;;;;;;5009176;28;20059;-79
2023/10/02 11:45:32;;;;;;;5.35;1.08;;;20.60;76.80;;;;;;5026309;28;20076;-78
2023/10/02 11:48:00;;;;;;;5.95;1.38;;;20.80;78.60;;;;;;5039626;28;20073;-78
2023/10/02 11:50:27;;;;;;;4.57;0.90;;;20.90;77.50;;;;;;5041370;28;20083;-77
2023/10/02 11:52:54;;;;;;;4.30;0.90;;;20.90;76.90;;;;;;5041795;28;20086;-78
2023/10/02 11:55:23;;;;;;;4.50;0.85;;;20.80;75.60;;;;;;5039649;28;20045;-79
2023/10/02 11:57:51;;;;;;;3.72;1.02;;;20.70;75.80;;;;;;5043337;28;20037;-79
2023/10/02 12:00:24;;;;;;;6.55;1.20;;;20.70;76.60;;;;;;5045672;28;20780;-79
2023/10/02 12:02:51;;;;;;;4.03;1.20;;;20.80;79.00;;;;;;5039996;28;20052;-78
2023/10/02 12:05:19;;;;;;;3.83;1.08;;;20.70;76.90;;;;;;5031474;28;20075;-78
2023/10/02 12:07:46;;;;;;;4.38;0.75;;;20.80;78.20;;;;;;5041058;28;20206;-78
2023/10/02 12:10:16;;;;;;;3.72;0.70;;;20.80;76.40;;;;;;5044223;28;21006;-78
2023/10/02 12:12:47;;;;;;;4.05;1.70;;;20.80;77.30;;;;;;5043644;28;20052;-79
2023/10/02 12:15:15;;;;;;;2.70;0.98;;;20.90;76.80;;;;;;5042042;28;22485;-76
2023/10/02 12:17:44;;;;;;;4.50;0.95;;;20.90;77.00;;;;;;5059896;28;20049;-78
2023/10/02 12:20:12;;;;;;;4.10;1.33;;;20.90;76.60;;;;;;5040426;28;20048;-78
2023/10/02 12:22:44;;;;;;;3.22;0.80;;;21.00;76.90;;;;;;5040473;28;20150;-77
2023/10/02 12:25:11;;;;;;;3.28;0.98;;;21.00;78.30;;;;;;5017418;28;20057;-78
2023/10/02 12:27:39;;;;;;;1.98;0.63;;;20.90;77.30;;;;;;5041813;28;20122;-78
2023/10/02 12:30:11;;;;;;;4.45;1.00;;;20.90;77.50;;;;;;5018529;28;20045;-79
2023/10/02 12:32:40;;;;;;;6.65;1.40;;;20.90;76.60;;;;;;5036816;28;20827;-78
2023/10/02 12:35:08;;;;;;;5.05;0.77;;;21.00;77.00;;;;;;5040963;28;22525;-77
2023/10/02 12:37:35;;;;;;;2.75;0.80;;;20.90;78.20;;;;;;5045348;28;20048;-78
2023/10/02 12:40:11;;;;;;;3.80;0.68;;;20.90;77.40;;;;;;5030491;28;20057;-78
2023/10/02 12:42:39;;;;;;;3.78;0.75;;;20.80;77.70;;;;;;5039880;28;20566;-78
2023/10/02 12:45:06;;;;;;;3.58;0.77;;;20.80;79.60;;;;;;5035130;28;20407;-78
2023/10/02 12:47:38;;;;;;;4.55;1.08;;;20.80;77.20;;;;;;5038010;28;20155;-77
2023/10/02 12:50:10;;;;;;;3.53;0.80;;;20.90;76.40;;;;;;5038645;28;21004;-78
2023/10/02 12:52:39;;;;;;;3.47;1.05;;;20.90;77.00;;;;;;5040612;28;20359;-77
2023/10/02 12:55:06;;;;;;;3.33;0.75;;;20.90;79.70;;;;;;5015662;28;20072;-77
2023/10/02 12:57:36;;;;;;;3.70;0.85;;;20.90;78.80;;;;;;5036005;28;20056;-78
2023/10/02 13:00:16;;;;;;;3.88;0.80;;;20.90;78.50;;;;;;5017893;28;20061;-78
2023/10/02 13:02:44;;;;;;;4.82;1.25;;;21.00;78.40;;;;;;5038556;28;20052;-78
2023/10/02 13:05:12;;;;;;;3.08;0.77;;;21.00;77.40;;;;;;5040942;28;20041;-77
2023/10/02 13:07:41;;;;;;;5.28;1.15;;;21.00;77.30;;;;;;5040254;28;20048;-78
2023/10/02 13:10:09;;;;;;;4.10;1.02;;;21.00;77.00;;;;;;5037544;28;20139;-78
2023/10/02 13:12:36;;;;;;;4.38;0.95;;;20.90;77.10;;;;;;5043161;28;20152;-78
2023/10/02 13:15:06;;;;;;;4.85;1.02;;;20.90;77.70;;;;;;5031479;28;20138;-78
2023/10/02 13:17:34;;;;;;;6.03;1.05;;;20.90;78.50;;;;;;5041039;28;20140;-77
2023/10/02 13:20:07;;;;;;;3.35;1.15;;;20.90;77.10;;;;;;5039442;28;20057;-77
2023/10/02 13:22:36;;;;;;;3.35;1.00;;;20.90;77.40;;;;;;5038112;28;20044;-77
2023/10/02 13:25:07;;;;;;;3.58;1.17;;;20.90;76.80;;;;;;5051131;28;20076;-78
2023/10/02 13:27:36;;;;;;;5.20;0.88;;;20.90;78.80;;;;;;5028423;28;20045;-78
2023/10/02 13:30:05;;;;;;;3.92;0.82;;;20.90;78.90;;;;;;5040544;28;20510;-78
2023/10/02 13:32:32;;;;;;;3.00;1.05;;;20.90;79.40;;;;;;5039495;28;20037;-78
2023/10/02 13:35:00;;;;;;;5.55;0.90;;;20.90;80.00;;;;;;5010956;28;20080;-78
2023/10/02 13:37:27;;;;;;;5.15;1.55;;;20.80;80.50;;;;;;5041262;28;20111;-78
2023/10/02 13:39:54;;;;;;;4.00;1.60;;;20.90;79.40;;;;;;5038004;28;20418;-78
2023/10/02 13:42:22;;;;;;;4.43;1.08;;;20.90;79.60;;;;;;5038296;28;22472;-78
2023/10/02 13:44:49;;;;;;;3.20;1.10;;;20.90;79.20;;;;;;5037857;28;20167;-78
2023/10/02 13:47:16;;;;;;;3.70;0.88;;;20.90;77.80;;;;;;5024196;28;20129;-78
2023/10/02 13:49:57;;;;;;;3.90;0.90;;;20.80;80.70;;;;;;5038831;28;22542;-77
2023/10/02 13:52:25;;;;;;;3.15;0.82;;;20.80;80.00;;;;;;5035649;28;20053;-79
2023/10/02 13:54:52;;;;;;;4.85;1.42;;;20.80;79.90;;;;;;5029969;28;20045;-79
2023/10/02 13:57:19;;;;;;;3.85;1.15;;;20.80;79.00;;;;;;5032994;28;20256;-77
2023/10/02 13:59:47;;;;;;;3.72;1.00;;;20.80;78.30;;;;;;5022156;28;20073;-78
2023/10/02 14:02:14;;;;;;;3.83;0.98;;;20.80;79.50;;;;;;5026151;28;20144;-78
2023/10/02 14:04:41;;;;;;;4.22;1.27;;;20.80;79.40;;;;;;5042946;28;20067;-79
2023/10/02 14:07:09;;;;;;;2.47;0.77;;;20.70;81.40;;;;;;5011264;28;20934;-78
2023/10/02 14:09:36;;;;;;;5.15;1.25;;;20.80;81.40;;;;;;5022206;28;20053;-78
2023/10/02 14:12:04;;;;;;;2.50;1.05;;;20.80;80.40;;;;;;5040861;28;20068;-78